SBCTSBFL

Guest
Details From SBCT - Afonso Pena
To SBFL - Hercillo Luz
Flight Number -
Tags Generated
Created
Modified
Stats Distance 133 nm / 247 km
Max Altitude 0 ft / 0 m
Waypoints 2
Social Downloads 2
Likes 0
Share VATSIM

Download

Looking for another format? Having issues loading an existing format? Contact us
Advertisement - Login to hide

Notes

Generated

Route

SBCT SBFL

ID Type Via Altitude Latitude Longitude Leg Dist Tot Dist Heading (true) Name
O SBCT APT - 0 ft / 0 m -25.52836˚ -49.18010˚ - 0 nm - -
O SBFL APT - 0 ft / 0 m -27.67664˚ -48.55458˚ 133 nm 133 nm 166° / 165° -

Altitude Profile

Advertisement - Login to hide

SBCT

Details ICAO SBCT (CWB)
Name Afonso Pena
Region Brazil
Timezone America/Sao_Paulo (UTC-3.0)
Stats Elevation 2,988 ft / 911 m (AMSL)
Location -25.528885° -49.173062°
Runways 2
Magnetic Variation 19.676° W

METAR

SBCT 280300Z 15002KT 0900 R15/0700 R33/1200 FG SCT001 BKN003 12 /12 Q1027

Decode

TAF

TAF SBCT 272230Z 2800/2824 10005KT CAVOK TN12/2809Z TX21/2818Z BECMG 2800/2802 8000 BKN005 PROB40 TEMPO 2802/2811 0500 FG VV001 BECMG 2811/2813 9999 NSW BKN010 BECMG 2813/2815 SCT020 RMK PEB

Decode

Departure Runways

ID Width Length Bearing (true) Bearing (mag) Surface Threshold Offset Overrun Length
11 148 ft / 45 m 5,909 ft / 1,801 m 91.79° 111.47° Asphalt 0 ft / 0 m 0 ft / 0 m
15 148 ft / 45 m 7,290 ft / 2,222 m 134.76° 154.44° Asphalt 0 ft / 0 m 190 ft / 58 m
29 148 ft / 45 m 5,909 ft / 1,801 m 271.78° 291.46° Asphalt 0 ft / 0 m 0 ft / 0 m
33 148 ft / 45 m 7,290 ft / 2,222 m 314.75° 334.43° Asphalt 0 ft / 0 m 185 ft / 56 m

SBFL

Details ICAO SBFL (FLN)
Name Hercillo Luz
Region Brazil
Timezone America/Sao_Paulo (UTC-3.0)
Stats Elevation 19 ft / 6 m (AMSL)
Location -27.670487° -48.547180°
Runways 2
Magnetic Variation 19.383° W

METAR

SBFL 280300Z 35005KT CAVOK 19/18 Q1024

Decode

TAF

TAF SBFL 272230Z 2800/2824 35006KT 9999 FEW035 TN18/2808Z TX26/2816Z BECMG 2800/2802 BKN030 BECMG 2813/2815 01011KT SCT035 RMK PEB

Decode

Destination Runways

ID Width Length Bearing (true) Bearing (mag) Surface Threshold Offset Overrun Length
03 148 ft / 45 m 4,939 ft / 1,505 m 11.55° 30.93° Concrete 0 ft / 0 m 0 ft / 0 m
14 148 ft / 45 m 7,543 ft / 2,299 m 121.30° 140.68° Asphalt 720 ft / 219 m 0 ft / 0 m
21 148 ft / 45 m 4,939 ft / 1,505 m 191.55° 210.93° Concrete 0 ft / 0 m 0 ft / 0 m
32 148 ft / 45 m 7,543 ft / 2,299 m 301.29° 320.67° Asphalt 0 ft / 0 m 200 ft / 61 m

Approach Navaids

Runway Type Ident Frequency Range Bearing (true) Bearing (mag) Slope Elevation
14 Localiser IFL 110.30 MHz 18 nm / 33 km 121.67° 141.05° - 19 ft / 6 m (AMSL)
14 Glidescope IFL 110.30 MHz 10 nm / 19 km 121.29° 140.67° 3.00° 19 ft / 6 m (AMSL)

Popular Alternatives